createdAt,value
2018-10-01T00:02:15.258Z,2.10
2018-10-01T00:04:43.119Z,2.30
2018-10-01T00:07:10.964Z,2.17
2018-10-01T00:09:38.793Z,2.10
2018-10-01T00:12:06.672Z,2.30
2018-10-01T00:14:34.492Z,2.07
2018-10-01T00:17:02.334Z,2.50
2018-10-01T00:19:35.434Z,2.27
2018-10-01T00:22:08.875Z,2.10
2018-10-01T00:24:36.776Z,2.10
2018-10-01T00:27:04.618Z,2.20
2018-10-01T00:29:32.447Z,2.17
2018-10-01T00:32:00.279Z,2.30
2018-10-01T00:34:28.128Z,2.07
2018-10-01T00:36:55.998Z,2.10
2018-10-01T00:39:23.825Z,2.10
2018-10-01T00:41:51.660Z,2.30
2018-10-01T00:44:19.545Z,2.20
2018-10-01T00:46:47.368Z,1.83
2018-10-01T00:49:15.214Z,1.70
2018-10-01T00:51:43.048Z,2.13
2018-10-01T00:54:11.388Z,1.87
2018-10-01T00:56:39.320Z,1.93
2018-10-01T00:59:07.171Z,2.00
2018-10-01T01:01:34.987Z,2.37
2018-10-01T01:04:02.847Z,2.03
2018-10-01T01:06:30.682Z,1.70
2018-10-01T01:08:58.527Z,2.13
2018-10-01T01:11:26.343Z,2.07
2018-10-01T01:13:54.208Z,2.00
2018-10-01T01:16:22.053Z,2.37
2018-10-01T01:18:49.862Z,2.40
2018-10-01T01:21:17.687Z,2.20
2018-10-01T01:23:45.541Z,2.07
2018-10-01T01:26:13.459Z,2.33
2018-10-01T01:28:41.282Z,2.00
2018-10-01T01:31:09.108Z,2.10
2018-10-01T01:33:36.928Z,2.00
2018-10-01T01:36:04.750Z,2.30
2018-10-01T01:38:32.591Z,1.63
2018-10-01T01:41:00.423Z,2.53
2018-10-01T01:43:28.251Z,2.20
2018-10-01T01:45:56.071Z,2.07
2018-10-01T01:48:24.172Z,2.07
2018-10-01T01:50:52.013Z,2.07
2018-10-01T01:53:19.850Z,2.20
2018-10-01T01:55:47.683Z,2.10
2018-10-01T01:58:16.048Z,2.13
2018-10-01T02:00:43.898Z,2.33
2018-10-01T02:03:12.526Z,2.17
2018-10-01T02:05:40.354Z,2.30
2018-10-01T02:08:08.182Z,2.17
2018-10-01T02:10:36.069Z,2.00
2018-10-01T02:13:04.035Z,1.93
2018-10-01T02:15:31.857Z,1.83
2018-10-01T02:17:59.720Z,1.80
2018-10-01T02:20:27.563Z,2.37
2018-10-01T02:22:55.418Z,2.00
2018-10-01T02:25:23.247Z,1.80
2018-10-01T02:27:51.118Z,2.07
2018-10-01T02:30:18.990Z,1.87
2018-10-01T02:32:46.856Z,2.07
2018-10-01T02:35:14.688Z,1.90
2018-10-01T02:37:42.589Z,2.43
2018-10-01T02:40:10.466Z,1.80
2018-10-01T02:42:38.330Z,2.20
2018-10-01T02:45:06.930Z,1.77
2018-10-01T02:47:34.768Z,2.23
2018-10-01T02:50:02.642Z,2.00
2018-10-01T02:52:35.604Z,1.83
2018-10-01T02:55:03.492Z,1.93
2018-10-01T02:57:31.319Z,2.10
2018-10-01T02:59:59.143Z,2.07
2018-10-01T03:02:27.645Z,2.00
2018-10-01T03:04:56.035Z,2.00
2018-10-01T03:07:23.845Z,2.10
2018-10-01T03:09:52.065Z,1.60
2018-10-01T03:12:19.980Z,1.80
2018-10-01T03:14:47.830Z,2.00
2018-10-01T03:17:16.480Z,1.63
2018-10-01T03:19:44.727Z,2.43
2018-10-01T03:22:12.556Z,1.70
2018-10-01T03:24:41.037Z,1.77
2018-10-01T03:27:09.421Z,1.90
2018-10-01T03:29:38.054Z,1.83
2018-10-01T03:32:06.533Z,1.80
2018-10-01T03:34:34.413Z,1.80
2018-10-01T03:37:02.495Z,1.80
2018-10-01T03:39:30.539Z,2.07
2018-10-01T03:41:58.583Z,1.97
2018-10-01T03:44:26.454Z,1.80
2018-10-01T03:46:54.276Z,2.10
2018-10-01T03:49:22.105Z,1.93
2018-10-01T03:51:49.943Z,1.70
2018-10-01T03:54:17.832Z,1.80
2018-10-01T03:56:45.683Z,1.97
2018-10-01T03:59:13.506Z,1.93
2018-10-01T04:01:41.384Z,1.93
2018-10-01T04:04:09.479Z,2.00
2018-10-01T04:06:37.348Z,1.70
2018-10-01T04:09:06.481Z,2.33
2018-10-01T04:11:34.313Z,1.80
2018-10-01T04:14:02.167Z,2.20
2018-10-01T04:16:30.050Z,2.73
2018-10-01T04:18:57.884Z,1.77
2018-10-01T04:21:25.719Z,1.60
2018-10-01T04:23:53.560Z,3.40
2018-10-01T04:26:21.407Z,1.80
2018-10-01T04:28:49.801Z,2.20
2018-10-01T04:31:17.631Z,1.60
2018-10-01T04:33:45.482Z,1.80
2018-10-01T04:36:13.391Z,1.73
2018-10-01T04:38:42.141Z,2.30
2018-10-01T04:41:10.338Z,2.10
2018-10-01T04:43:38.171Z,1.77
2018-10-01T04:46:06.009Z,2.20
2018-10-01T04:48:34.608Z,2.60
2018-10-01T04:51:02.460Z,1.90
2018-10-01T04:53:30.878Z,2.70
2018-10-01T04:55:58.716Z,2.13
2018-10-01T04:58:26.730Z,2.47
2018-10-01T05:00:55.208Z,1.80
2018-10-01T05:03:23.858Z,2.00
2018-10-01T05:05:52.479Z,1.87
2018-10-01T05:08:20.311Z,2.10
2018-10-01T05:10:48.632Z,1.97
2018-10-01T05:13:16.524Z,2.00
2018-10-01T05:15:44.383Z,2.17
2018-10-01T05:18:12.211Z,2.23
2018-10-01T05:20:40.750Z,2.30
2018-10-01T05:23:08.684Z,2.00
2018-10-01T05:25:36.523Z,2.00
2018-10-01T05:28:04.429Z,2.33
2018-10-01T05:30:32.356Z,2.43
2018-10-01T05:33:00.795Z,2.27
2018-10-01T05:35:29.237Z,1.93
2018-10-01T05:37:57.128Z,1.87
2018-10-01T05:40:24.936Z,1.80
2018-10-01T05:42:53.205Z,2.40
2018-10-01T05:45:21.849Z,2.23
2018-10-01T05:47:50.449Z,2.43
2018-10-01T05:50:18.302Z,2.57
2018-10-01T05:52:46.778Z,2.10
2018-10-01T05:55:15.171Z,2.20
2018-10-01T05:57:43.066Z,2.50
2018-10-01T06:00:11.711Z,2.60
2018-10-01T06:02:39.552Z,2.47
2018-10-01T06:05:07.403Z,2.70
2018-10-01T06:07:35.232Z,2.40
2018-10-01T06:10:03.100Z,2.73
2018-10-01T06:12:31.065Z,2.90
2018-10-01T06:14:59.909Z,2.37
2018-10-01T06:17:27.744Z,2.60
2018-10-01T06:19:55.999Z,2.13
2018-10-01T06:22:24.465Z,5.77
2018-10-01T06:24:53.039Z,2.77
2018-10-01T06:27:20.866Z,2.80
2018-10-01T06:29:48.686Z,2.93
2018-10-01T06:32:16.519Z,2.60
2018-10-01T06:34:44.649Z,2.33
2018-10-01T06:37:12.941Z,2.23
2018-10-01T06:39:41.163Z,2.50
2018-10-01T06:42:09.521Z,2.77
2018-10-01T06:44:37.342Z,2.43
2018-10-01T06:47:05.581Z,2.43
2018-10-01T06:49:33.431Z,2.17
2018-10-01T06:52:01.294Z,2.43
2018-10-01T06:54:29.126Z,2.50
2018-10-01T06:56:57.028Z,2.93
2018-10-01T06:59:24.987Z,2.37
2018-10-01T07:01:53.414Z,2.33
2018-10-01T07:04:22.060Z,2.30
2018-10-01T07:06:50.512Z,2.70
2018-10-01T07:09:18.946Z,2.30
2018-10-01T07:11:47.399Z,2.30
2018-10-01T07:14:16.043Z,2.40
2018-10-01T07:16:44.755Z,2.90
2018-10-01T07:19:13.421Z,2.77
2018-10-01T07:21:41.715Z,2.67
2018-10-01T07:24:09.987Z,2.37
2018-10-01T07:26:38.451Z,2.30
2018-10-01T07:29:06.811Z,2.30
2018-10-01T07:31:34.662Z,2.30
2018-10-01T07:34:03.158Z,2.50
2018-10-01T07:36:31.714Z,3.13
2018-10-01T07:39:00.354Z,2.10
2018-10-01T07:41:28.718Z,2.40
2018-10-01T07:43:57.314Z,2.43
2018-10-01T07:46:25.514Z,2.10
2018-10-01T07:48:53.988Z,2.37
2018-10-01T07:51:21.877Z,2.27
2018-10-01T07:53:50.070Z,3.37
2018-10-01T07:56:18.511Z,2.63
2018-10-01T07:58:46.943Z,2.30
2018-10-01T08:01:15.663Z,2.40
2018-10-01T08:03:44.206Z,2.57
2018-10-01T08:06:12.683Z,3.20
2018-10-01T08:08:41.319Z,2.70
2018-10-01T08:11:10.110Z,3.00
2018-10-01T08:13:38.572Z,3.60
2018-10-01T08:16:07.003Z,2.90
2018-10-01T08:18:34.811Z,3.50
2018-10-01T08:21:02.627Z,2.70
2018-10-01T08:23:31.590Z,3.10
2018-10-01T08:25:59.533Z,2.60
2018-10-01T08:28:27.327Z,2.80
2018-10-01T08:30:55.222Z,3.70
2018-10-01T08:33:23.049Z,3.33
2018-10-01T08:35:50.880Z,3.27
2018-10-01T08:38:18.809Z,3.40
2018-10-01T08:40:47.084Z,3.00
2018-10-01T08:43:14.967Z,2.87
2018-10-01T08:45:42.779Z,3.03
2018-10-01T08:48:11.523Z,3.03
2018-10-01T08:50:45.602Z,3.20
2018-10-01T08:53:18.962Z,6.10
2018-10-01T08:55:47.851Z,3.53
2018-10-01T08:58:16.607Z,3.13
2018-10-01T09:00:45.448Z,3.47
2018-10-01T09:03:14.038Z,3.67
2018-10-01T09:05:42.551Z,3.20
2018-10-01T09:08:11.249Z,3.53
2018-10-01T09:10:39.775Z,3.07
2018-10-01T09:13:08.416Z,3.70
2018-10-01T09:15:36.630Z,3.60
2018-10-01T09:18:05.361Z,3.60
2018-10-01T09:20:33.883Z,3.37
2018-10-01T09:23:02.388Z,3.00
2018-10-01T09:25:30.980Z,3.17
2018-10-01T09:27:59.834Z,3.40
2018-10-01T09:30:28.479Z,3.10
2018-10-01T09:32:56.913Z,3.50
2018-10-01T09:35:25.540Z,3.03
2018-10-01T09:37:54.229Z,3.30
2018-10-01T09:40:22.110Z,2.90
2018-10-01T09:42:49.955Z,3.17
2018-10-01T09:45:18.284Z,3.57
2018-10-01T09:47:46.970Z,3.20
2018-10-01T09:50:15.603Z,3.67
2018-10-01T09:52:43.812Z,3.10
2018-10-01T09:55:12.284Z,3.20
2018-10-01T09:57:40.924Z,3.10
2018-10-01T10:00:09.787Z,3.20
2018-10-01T10:02:38.290Z,6.13
2018-10-01T10:05:07.127Z,2.70
2018-10-01T10:07:35.822Z,2.70
2018-10-01T10:10:04.295Z,2.30
2018-10-01T10:12:32.147Z,2.33
2018-10-01T10:15:00.589Z,2.03
2018-10-01T10:17:28.674Z,2.53
2018-10-01T10:19:57.302Z,2.17
2018-10-01T10:22:25.758Z,2.23
2018-10-01T10:24:53.931Z,2.30
2018-10-01T10:27:25.714Z,2.33
2018-10-01T10:29:53.615Z,2.07
2018-10-01T10:32:21.541Z,2.20
2018-10-01T10:34:49.571Z,2.00
2018-10-01T10:37:17.436Z,2.07
2018-10-01T10:39:45.335Z,1.73
2018-10-01T10:42:13.240Z,1.70
2018-10-01T10:44:41.136Z,1.87
2018-10-01T10:47:08.995Z,2.00
2018-10-01T10:49:36.838Z,2.00
2018-10-01T10:52:05.054Z,1.93
2018-10-01T10:54:32.961Z,1.90
2018-10-01T10:57:00.940Z,2.03
2018-10-01T10:59:28.872Z,2.07
2018-10-01T11:01:57.183Z,2.33
2018-10-01T11:04:25.353Z,2.00
2018-10-01T11:06:54.686Z,1.63
2018-10-01T11:09:23.076Z,1.83
2018-10-01T11:11:51.552Z,1.60
2018-10-01T11:14:19.506Z,1.50
2018-10-01T11:16:47.331Z,1.40
2018-10-01T11:19:15.369Z,1.30
2018-10-01T11:21:43.947Z,1.57
2018-10-01T11:24:12.381Z,1.53
2018-10-01T11:26:40.400Z,1.63
2018-10-01T11:29:09.011Z,1.30
2018-10-01T11:31:37.563Z,1.40
2018-10-01T11:34:06.131Z,1.50
2018-10-01T11:36:34.096Z,1.53
2018-10-01T11:39:02.004Z,1.30
2018-10-01T11:41:30.014Z,1.60
2018-10-01T11:43:57.860Z,1.40
2018-10-01T11:46:26.356Z,1.80
2018-10-01T11:48:54.354Z,1.87
2018-10-01T11:51:28.844Z,1.60
2018-10-01T11:53:59.674Z,1.70
2018-10-01T11:56:29.066Z,1.77
2018-10-01T11:58:56.941Z,1.50
2018-10-01T12:01:25.538Z,1.63
2018-10-01T12:03:54.106Z,1.87
2018-10-01T12:06:22.801Z,2.10
2018-10-01T12:08:50.665Z,2.20
2018-10-01T12:11:18.491Z,1.80
2018-10-01T12:13:46.333Z,2.77
2018-10-01T12:16:15.087Z,1.67
2018-10-01T12:18:43.075Z,2.00
2018-10-01T12:21:10.947Z,1.80
2018-10-01T12:23:38.770Z,1.97
2018-10-01T12:26:06.605Z,1.77
2018-10-01T12:28:34.423Z,1.50
2018-10-01T12:31:03.004Z,1.70
2018-10-01T12:33:31.459Z,1.73
2018-10-01T12:35:59.779Z,1.40
2018-10-01T12:38:28.670Z,1.13
2018-10-01T12:40:58.690Z,1.20
2018-10-01T12:43:27.635Z,1.73
2018-10-01T12:45:55.990Z,1.20
2018-10-01T12:48:25.347Z,1.53
2018-10-01T12:50:54.180Z,2.00
2018-10-01T12:53:22.505Z,1.53
2018-10-01T12:55:51.166Z,1.40
2018-10-01T12:58:19.816Z,1.80
2018-10-01T13:00:48.425Z,2.03
2018-10-01T13:03:16.844Z,1.63
2018-10-01T13:05:45.256Z,2.03
2018-10-01T13:08:13.743Z,1.83
2018-10-01T13:10:42.486Z,2.23
2018-10-01T13:13:11.087Z,1.97
2018-10-01T13:15:39.662Z,2.07
2018-10-01T13:18:08.410Z,1.90
2018-10-01T13:20:36.880Z,1.90
2018-10-01T13:23:05.557Z,2.37
2018-10-01T13:25:34.251Z,1.57
2018-10-01T13:28:02.865Z,2.03
2018-10-01T13:30:31.531Z,1.60
2018-10-01T13:32:59.867Z,1.87
2018-10-01T13:35:28.371Z,1.73
2018-10-01T13:37:56.973Z,1.90
2018-10-01T13:40:25.404Z,1.80
2018-10-01T13:42:54.047Z,1.47
2018-10-01T13:45:22.839Z,1.87
2018-10-01T13:47:51.311Z,1.63
2018-10-01T13:50:19.955Z,1.70
2018-10-01T13:52:48.588Z,1.30
2018-10-01T13:55:17.227Z,1.60
2018-10-01T13:57:45.620Z,1.57
2018-10-01T14:00:14.110Z,1.53
2018-10-01T14:02:42.523Z,1.63
2018-10-01T14:05:11.004Z,1.10
2018-10-01T14:07:39.714Z,1.40
2018-10-01T14:10:08.238Z,1.40
2018-10-01T14:12:36.528Z,1.13
2018-10-01T14:15:05.155Z,1.30
2018-10-01T14:17:34.565Z,1.50
2018-10-01T14:20:03.253Z,1.57
2018-10-01T14:22:31.442Z,1.20
2018-10-01T14:24:59.898Z,1.23
2018-10-01T14:27:28.518Z,1.50
2018-10-01T14:29:57.810Z,2.37
2018-10-01T14:32:26.376Z,1.73
2018-10-01T14:34:55.056Z,1.37
2018-10-01T14:37:23.423Z,1.53
2018-10-01T14:39:51.803Z,1.50
2018-10-01T14:42:20.359Z,1.50
2018-10-01T14:44:49.060Z,1.30
2018-10-01T14:47:17.700Z,1.30
2018-10-01T14:49:46.671Z,1.40
2018-10-01T14:52:15.105Z,1.30
2018-10-01T14:54:43.731Z,1.73
2018-10-01T14:57:12.343Z,1.60
2018-10-01T14:59:40.978Z,1.60
2018-10-01T15:02:09.648Z,1.20
2018-10-01T15:04:38.259Z,1.77
2018-10-01T15:07:06.890Z,1.60
2018-10-01T15:09:35.543Z,1.60
2018-10-01T15:13:06.265Z,1.60
2018-10-01T15:15:34.717Z,1.37
2018-10-01T15:18:03.450Z,1.20
2018-10-01T15:20:32.062Z,1.30
2018-10-01T15:23:00.410Z,1.40
2018-10-01T15:25:28.723Z,1.37
2018-10-01T15:27:57.354Z,1.00
2018-10-01T15:30:26.084Z,1.30
2018-10-01T15:32:54.366Z,1.13
2018-10-01T15:35:22.872Z,1.30
2018-10-01T15:37:51.788Z,1.40
2018-10-01T15:40:20.328Z,1.20
2018-10-01T15:42:48.944Z,1.63
2018-10-01T15:45:17.208Z,1.90
2018-10-01T15:47:45.045Z,1.63
2018-10-01T15:50:13.684Z,1.90
2018-10-01T15:52:42.532Z,1.43
2018-10-01T15:55:11.148Z,1.40
2018-10-01T15:57:39.783Z,1.40
2018-10-01T16:00:08.474Z,1.40
2018-10-01T16:02:37.203Z,1.30
2018-10-01T16:05:05.891Z,1.47
2018-10-01T16:07:34.342Z,1.30
2018-10-01T16:10:02.924Z,1.30
2018-10-01T16:12:31.212Z,1.50
2018-10-01T16:14:59.924Z,1.50
2018-10-01T16:17:28.499Z,1.30
2018-10-01T16:19:57.056Z,1.40
2018-10-01T16:22:25.622Z,1.40
2018-10-01T16:24:54.154Z,1.50
2018-10-01T16:27:22.476Z,1.30
2018-10-01T16:29:51.078Z,1.20
2018-10-01T16:32:19.337Z,1.23
2018-10-01T16:34:47.992Z,1.30
2018-10-01T16:37:16.768Z,1.53
2018-10-01T16:39:45.264Z,1.60
2018-10-01T16:44:47.821Z,1.40
2018-10-01T16:47:16.460Z,1.47
2018-10-01T16:49:44.867Z,1.60
2018-10-01T16:52:13.365Z,1.73
2018-10-01T16:54:41.979Z,1.53
2018-10-01T16:57:10.971Z,1.53
2018-10-01T16:59:39.639Z,1.60
2018-10-01T17:02:08.263Z,1.50
2018-10-01T17:04:36.878Z,1.50
2018-10-01T17:07:05.353Z,1.40
2018-10-01T17:09:33.746Z,1.63
2018-10-01T17:12:01.579Z,1.47
2018-10-01T17:14:29.610Z,1.30
2018-10-01T17:16:57.471Z,2.70
2018-10-01T17:19:25.427Z,4.97
2018-10-01T17:21:53.567Z,1.57
2018-10-01T17:24:22.284Z,1.97
2018-10-01T17:26:50.920Z,1.50
2018-10-01T17:29:19.705Z,1.70
2018-10-01T17:31:48.401Z,1.70
2018-10-01T17:34:16.779Z,1.60
2018-10-01T17:36:45.025Z,1.80
2018-10-01T17:39:12.880Z,1.60
2018-10-01T17:41:41.138Z,1.63
2018-10-01T17:44:09.427Z,1.97
2018-10-01T17:46:38.039Z,1.40
2018-10-01T17:49:06.571Z,1.83
2018-10-01T17:51:35.149Z,1.63
2018-10-01T17:54:03.300Z,2.37
2018-10-01T17:56:31.351Z,1.77
2018-10-01T17:58:59.278Z,1.67
2018-10-01T18:01:27.840Z,1.57
2018-10-01T18:03:55.985Z,1.77
2018-10-01T18:06:24.341Z,2.07
2018-10-01T18:08:52.848Z,2.13
2018-10-01T18:11:21.555Z,1.67
2018-10-01T18:13:49.964Z,1.90
2018-10-01T18:16:18.613Z,1.90
2018-10-01T18:18:48.045Z,2.20
2018-10-01T18:21:16.589Z,2.43
2018-10-01T18:23:44.527Z,1.90
2018-10-01T18:26:13.377Z,2.40
2018-10-01T18:28:41.664Z,2.23
2018-10-01T18:31:10.172Z,1.80
2018-10-01T18:33:39.407Z,2.07
2018-10-01T18:36:08.819Z,1.73
2018-10-01T18:38:38.196Z,1.70
2018-10-01T18:41:06.154Z,1.70
2018-10-01T18:43:34.771Z,2.37
2018-10-01T18:46:03.237Z,1.40
2018-10-01T18:48:31.833Z,1.40
2018-10-01T18:51:00.797Z,1.60
2018-10-01T18:53:29.496Z,1.77
2018-10-01T18:55:57.897Z,1.37
2018-10-01T18:58:26.164Z,1.40
2018-10-01T19:00:54.097Z,1.40
2018-10-01T19:03:22.523Z,1.50
2018-10-01T19:05:50.797Z,1.67
2018-10-01T19:08:19.349Z,1.70
2018-10-01T19:10:47.978Z,1.27
2018-10-01T19:13:17.047Z,2.17
2018-10-01T19:15:46.344Z,1.43
2018-10-01T19:18:14.294Z,1.60
2018-10-01T19:20:43.387Z,1.60
2018-10-01T19:23:11.545Z,1.50
2018-10-01T19:25:40.387Z,1.53
2018-10-01T19:28:08.279Z,1.50
2018-10-01T19:30:36.187Z,1.33
2018-10-01T19:33:04.145Z,1.07
2018-10-01T19:35:32.741Z,1.60
2018-10-01T19:38:01.273Z,1.03
2018-10-01T19:40:29.876Z,2.43
2018-10-01T19:42:57.730Z,1.27
2018-10-01T19:45:26.067Z,1.50
2018-10-01T19:47:54.516Z,1.23
2018-10-01T19:50:22.958Z,1.23
2018-10-01T19:52:51.624Z,1.30
2018-10-01T19:55:20.018Z,1.43
2018-10-01T19:57:48.232Z,1.20
2018-10-01T20:00:16.835Z,1.13
2018-10-01T20:02:45.398Z,1.37
2018-10-01T20:05:14.423Z,1.30
2018-10-01T20:07:43.039Z,1.00
2018-10-01T20:10:12.103Z,1.30
2018-10-01T20:12:40.798Z,1.40
2018-10-01T20:15:09.425Z,1.53
2018-10-01T20:17:37.964Z,1.37
2018-10-01T20:20:05.875Z,1.10
2018-10-01T20:22:33.732Z,1.23
2018-10-01T20:25:01.596Z,1.27
2018-10-01T20:27:30.390Z,1.73
2018-10-01T20:29:58.813Z,1.50
2018-10-01T20:32:27.543Z,1.30
2018-10-01T20:34:55.430Z,1.27
2018-10-01T20:37:23.912Z,1.40
2018-10-01T20:39:52.554Z,1.27
2018-10-01T20:42:21.073Z,1.77
2018-10-01T20:44:49.374Z,1.30
2018-10-01T20:47:17.921Z,1.20
2018-10-01T20:49:46.567Z,1.57
2018-10-01T20:52:14.994Z,1.33
2018-10-01T20:54:43.361Z,1.50
2018-10-01T20:57:11.803Z,1.60
2018-10-01T20:59:40.274Z,1.40
2018-10-01T21:02:08.920Z,1.30
2018-10-01T21:04:37.541Z,1.10
2018-10-01T21:07:06.040Z,1.10
2018-10-01T21:09:34.429Z,1.53
2018-10-01T21:12:02.869Z,1.20
2018-10-01T21:14:31.657Z,1.00
2018-10-01T21:16:59.983Z,1.13
2018-10-01T21:19:28.578Z,1.30
2018-10-01T21:21:57.356Z,1.47
2018-10-01T21:24:26.006Z,1.83
2018-10-01T21:26:54.236Z,2.07
2018-10-01T21:29:22.976Z,1.70
2018-10-01T21:31:51.562Z,1.53
2018-10-01T21:34:20.190Z,1.03
2018-10-01T21:36:48.538Z,0.90
2018-10-01T21:39:24.402Z,1.63
2018-10-01T21:41:53.018Z,0.90
2018-10-01T21:44:21.669Z,1.03
2018-10-01T21:46:50.304Z,1.20
2018-10-01T21:49:18.643Z,1.70
2018-10-01T21:51:47.128Z,0.90
2018-10-01T21:54:15.056Z,1.23
2018-10-01T21:56:43.730Z,1.00
2018-10-01T21:59:12.252Z,1.10
2018-10-01T22:01:41.605Z,1.10
2018-10-01T22:04:10.099Z,1.03
2018-10-01T22:06:38.743Z,1.07
2018-10-01T22:09:07.579Z,1.30
2018-10-01T22:11:35.442Z,1.27
2018-10-01T22:14:03.667Z,1.17
2018-10-01T22:16:31.511Z,1.07
2018-10-01T22:18:59.391Z,1.03
2018-10-01T22:21:28.022Z,1.00
2018-10-01T22:23:55.897Z,0.90
2018-10-01T22:26:23.743Z,1.80
2018-10-01T22:28:51.704Z,1.20
2018-10-01T22:31:19.955Z,0.73
2018-10-01T22:33:48.001Z,1.00
2018-10-01T22:36:16.499Z,1.00
2018-10-01T22:38:44.928Z,0.80
2018-10-01T22:41:13.570Z,1.17
2018-10-01T22:43:42.210Z,0.90
2018-10-01T22:46:10.100Z,1.20
2018-10-01T22:48:37.980Z,1.00
2018-10-01T22:51:06.586Z,1.00
2018-10-01T22:53:34.935Z,1.00
2018-10-01T22:56:03.416Z,1.00
2018-10-01T22:58:32.034Z,1.07
2018-10-01T23:01:00.139Z,0.73
2018-10-01T23:03:28.727Z,1.13
2018-10-01T23:05:57.407Z,1.00
2018-10-01T23:08:25.511Z,0.97
2018-10-01T23:10:54.050Z,0.70
2018-10-01T23:13:22.697Z,0.90
2018-10-01T23:15:51.123Z,1.57
2018-10-01T23:18:18.955Z,0.83
2018-10-01T23:20:46.792Z,1.03
2018-10-01T23:23:16.854Z,0.90
2018-10-01T23:25:45.470Z,1.07
2018-10-01T23:28:13.926Z,0.90
2018-10-01T23:30:42.178Z,0.83
2018-10-01T23:33:10.792Z,1.10
2018-10-01T23:35:39.234Z,1.20
2018-10-01T23:38:07.513Z,1.00
2018-10-01T23:40:36.296Z,1.23
2018-10-01T23:43:04.775Z,1.10
2018-10-01T23:45:33.421Z,2.00
2018-10-01T23:48:02.050Z,1.13
2018-10-01T23:50:30.439Z,1.00
2018-10-01T23:52:58.435Z,0.83
2018-10-01T23:55:26.771Z,1.43
2018-10-01T23:57:54.635Z,1.10
